sensor_id;sensor_type;location;lat;lon;timestamp;P1;durP1;ratioP1;P2;durP2;ratioP2
37997;SDS011;24079;51.824;4.682;2023-07-22T00:02:23;13.07;;;8.23;;
37997;SDS011;24079;51.824;4.682;2023-07-22T00:04:49;16.55;;;9.10;;
37997;SDS011;24079;51.824;4.682;2023-07-22T00:07:15;18.35;;;9.57;;
37997;SDS011;24079;51.824;4.682;2023-07-22T00:09:41;19.60;;;9.65;;
37997;SDS011;24079;51.824;4.682;2023-07-22T00:12:08;15.73;;;10.07;;
37997;SDS011;24079;51.824;4.682;2023-07-22T00:14:35;16.70;;;9.52;;
37997;SDS011;24079;51.824;4.682;2023-07-22T00:17:04;14.65;;;9.13;;
37997;SDS011;24079;51.824;4.682;2023-07-22T00:19:30;17.50;;;9.73;;
37997;SDS011;24079;51.824;4.682;2023-07-22T00:21:55;15.65;;;9.32;;
37997;SDS011;24079;51.824;4.682;2023-07-22T00:24:21;15.27;;;9.27;;
37997;SDS011;24079;51.824;4.682;2023-07-22T00:26:47;15.40;;;9.23;;
37997;SDS011;24079;51.824;4.682;2023-07-22T00:29:14;17.80;;;9.77;;
37997;SDS011;24079;51.824;4.682;2023-07-22T00:31:41;16.65;;;9.57;;
37997;SDS011;24079;51.824;4.682;2023-07-22T00:34:07;15.70;;;8.65;;
37997;SDS011;24079;51.824;4.682;2023-07-22T00:36:33;12.10;;;7.63;;
37997;SDS011;24079;51.824;4.682;2023-07-22T00:38:58;11.00;;;6.93;;
37997;SDS011;24079;51.824;4.682;2023-07-22T00:41:24;9.93;;;6.35;;
37997;SDS011;24079;51.824;4.682;2023-07-22T00:43:50;10.63;;;7.05;;
37997;SDS011;24079;51.824;4.682;2023-07-22T00:46:15;10.15;;;6.38;;
37997;SDS011;24079;51.824;4.682;2023-07-22T00:48:41;10.45;;;6.45;;
37997;SDS011;24079;51.824;4.682;2023-07-22T00:51:07;12.05;;;5.90;;
37997;SDS011;24079;51.824;4.682;2023-07-22T00:53:33;12.75;;;6.45;;
37997;SDS011;24079;51.824;4.682;2023-07-22T00:55:58;7.78;;;5.47;;
37997;SDS011;24079;51.824;4.682;2023-07-22T00:58:24;12.57;;;5.85;;
37997;SDS011;24079;51.824;4.682;2023-07-22T01:00:50;10.82;;;6.45;;
37997;SDS011;24079;51.824;4.682;2023-07-22T01:03:16;9.38;;;5.43;;
37997;SDS011;24079;51.824;4.682;2023-07-22T01:05:43;13.93;;;6.75;;
37997;SDS011;24079;51.824;4.682;2023-07-22T01:08:10;11.70;;;6.40;;
37997;SDS011;24079;51.824;4.682;2023-07-22T01:10:36;11.52;;;6.07;;
37997;SDS011;24079;51.824;4.682;2023-07-22T01:13:02;12.32;;;6.43;;
37997;SDS011;24079;51.824;4.682;2023-07-22T01:15:27;10.02;;;6.35;;
37997;SDS011;24079;51.824;4.682;2023-07-22T01:17:54;10.05;;;6.60;;
37997;SDS011;24079;51.824;4.682;2023-07-22T01:20:21;7.97;;;5.85;;
37997;SDS011;24079;51.824;4.682;2023-07-22T01:22:51;13.02;;;6.07;;
37997;SDS011;24079;51.824;4.682;2023-07-22T01:25:17;11.25;;;6.00;;
37997;SDS011;24079;51.824;4.682;2023-07-22T01:27:47;10.38;;;5.95;;
37997;SDS011;24079;51.824;4.682;2023-07-22T01:30:16;9.25;;;5.60;;
37997;SDS011;24079;51.824;4.682;2023-07-22T01:32:42;12.57;;;6.45;;
37997;SDS011;24079;51.824;4.682;2023-07-22T01:35:08;27.15;;;6.32;;
37997;SDS011;24079;51.824;4.682;2023-07-22T01:37:34;11.70;;;6.07;;
37997;SDS011;24079;51.824;4.682;2023-07-22T01:40:00;11.07;;;6.43;;
37997;SDS011;24079;51.824;4.682;2023-07-22T01:42:36;12.88;;;5.40;;
37997;SDS011;24079;51.824;4.682;2023-07-22T01:45:01;10.77;;;5.45;;
37997;SDS011;24079;51.824;4.682;2023-07-22T01:47:27;11.90;;;5.97;;
37997;SDS011;24079;51.824;4.682;2023-07-22T01:49:53;8.77;;;4.90;;
37997;SDS011;24079;51.824;4.682;2023-07-22T01:52:19;8.88;;;5.20;;
37997;SDS011;24079;51.824;4.682;2023-07-22T01:54:45;23.73;;;5.88;;
37997;SDS011;24079;51.824;4.682;2023-07-22T01:57:10;11.10;;;4.97;;
37997;SDS011;24079;51.824;4.682;2023-07-22T01:59:36;8.98;;;4.90;;
37997;SDS011;24079;51.824;4.682;2023-07-22T02:02:01;8.55;;;5.35;;
37997;SDS011;24079;51.824;4.682;2023-07-22T02:04:27;8.75;;;5.00;;
37997;SDS011;24079;51.824;4.682;2023-07-22T07:58:36;24.70;;;11.35;;
37997;SDS011;24079;51.824;4.682;2023-07-22T08:01:03;20.77;;;11.02;;
37997;SDS011;24079;51.824;4.682;2023-07-22T08:03:29;18.67;;;11.00;;
37997;SDS011;24079;51.824;4.682;2023-07-22T08:05:56;26.58;;;11.85;;
37997;SDS011;24079;51.824;4.682;2023-07-22T08:08:22;25.35;;;10.80;;
37997;SDS011;24079;51.824;4.682;2023-07-22T08:11:01;23.13;;;10.68;;
37997;SDS011;24079;51.824;4.682;2023-07-22T08:13:28;26.55;;;10.68;;
37997;SDS011;24079;51.824;4.682;2023-07-22T08:16:00;25.35;;;11.65;;
37997;SDS011;24079;51.824;4.682;2023-07-22T08:20:55;20.98;;;10.43;;
37997;SDS011;24079;51.824;4.682;2023-07-22T08:23:21;29.00;;;10.45;;
37997;SDS011;24079;51.824;4.682;2023-07-22T08:25:47;20.05;;;10.18;;
37997;SDS011;24079;51.824;4.682;2023-07-22T08:28:13;25.52;;;11.05;;
37997;SDS011;24079;51.824;4.682;2023-07-22T08:30:39;18.70;;;10.02;;
37997;SDS011;24079;51.824;4.682;2023-07-22T08:33:05;23.35;;;10.95;;
37997;SDS011;24079;51.824;4.682;2023-07-22T08:35:33;35.30;;;11.18;;
37997;SDS011;24079;51.824;4.682;2023-07-22T08:38:00;24.02;;;11.13;;
37997;SDS011;24079;51.824;4.682;2023-07-22T08:40:27;19.52;;;9.75;;
37997;SDS011;24079;51.824;4.682;2023-07-22T08:42:58;22.65;;;10.27;;
37997;SDS011;24079;51.824;4.682;2023-07-22T08:45:24;21.08;;;9.40;;
37997;SDS011;24079;51.824;4.682;2023-07-22T08:47:54;19.58;;;8.77;;
37997;SDS011;24079;51.824;4.682;2023-07-22T08:50:23;20.92;;;8.95;;
37997;SDS011;24079;51.824;4.682;2023-07-22T08:52:59;22.98;;;9.52;;
37997;SDS011;24079;51.824;4.682;2023-07-22T08:55:26;18.70;;;8.93;;
37997;SDS011;24079;51.824;4.682;2023-07-22T08:57:52;12.43;;;7.53;;
37997;SDS011;24079;51.824;4.682;2023-07-22T09:00:18;16.30;;;8.05;;
37997;SDS011;24079;51.824;4.682;2023-07-22T09:02:44;16.45;;;7.90;;
37997;SDS011;24079;51.824;4.682;2023-07-22T09:05:10;19.33;;;8.35;;
37997;SDS011;24079;51.824;4.682;2023-07-22T09:07:37;14.48;;;6.90;;
37997;SDS011;24079;51.824;4.682;2023-07-22T09:10:04;11.40;;;5.80;;
37997;SDS011;24079;51.824;4.682;2023-07-22T09:12:33;13.93;;;6.50;;
37997;SDS011;24079;51.824;4.682;2023-07-22T09:15:06;14.60;;;5.55;;
37997;SDS011;24079;51.824;4.682;2023-07-22T09:17:34;11.90;;;5.38;;
37997;SDS011;24079;51.824;4.682;2023-07-22T09:20:01;14.15;;;5.85;;
37997;SDS011;24079;51.824;4.682;2023-07-22T09:22:28;12.15;;;5.55;;
37997;SDS011;24079;51.824;4.682;2023-07-22T09:25:06;14.60;;;5.82;;
37997;SDS011;24079;51.824;4.682;2023-07-22T09:27:43;14.32;;;5.88;;
37997;SDS011;24079;51.824;4.682;2023-07-22T09:30:24;13.68;;;5.97;;
37997;SDS011;24079;51.824;4.682;2023-07-22T09:32:55;13.80;;;6.28;;
37997;SDS011;24079;51.824;4.682;2023-07-22T09:35:29;10.75;;;5.53;;
37997;SDS011;24079;51.824;4.682;2023-07-22T09:38:12;17.88;;;6.68;;
37997;SDS011;24079;51.824;4.682;2023-07-22T09:40:42;15.57;;;5.85;;
37997;SDS011;24079;51.824;4.682;2023-07-22T09:43:11;13.70;;;5.43;;
37997;SDS011;24079;51.824;4.682;2023-07-22T09:45:37;18.90;;;6.65;;
37997;SDS011;24079;51.824;4.682;2023-07-22T09:48:03;12.32;;;5.45;;
37997;SDS011;24079;51.824;4.682;2023-07-22T09:50:30;12.25;;;6.57;;
37997;SDS011;24079;51.824;4.682;2023-07-22T09:52:56;12.80;;;5.72;;
37997;SDS011;24079;51.824;4.682;2023-07-22T09:55:24;15.27;;;5.78;;
37997;SDS011;24079;51.824;4.682;2023-07-22T09:57:53;16.85;;;6.38;;
37997;SDS011;24079;51.824;4.682;2023-07-22T10:00:30;15.05;;;6.03;;
37997;SDS011;24079;51.824;4.682;2023-07-22T10:02:59;13.32;;;5.97;;
37997;SDS011;24079;51.824;4.682;2023-07-22T10:05:28;17.55;;;6.90;;
37997;SDS011;24079;51.824;4.682;2023-07-22T10:07:57;14.77;;;5.80;;
37997;SDS011;24079;51.824;4.682;2023-07-22T10:10:30;14.85;;;6.40;;
37997;SDS011;24079;51.824;4.682;2023-07-22T10:12:57;13.40;;;5.75;;
37997;SDS011;24079;51.824;4.682;2023-07-22T10:15:28;13.52;;;5.90;;
37997;SDS011;24079;51.824;4.682;2023-07-22T10:17:55;13.60;;;6.25;;
37997;SDS011;24079;51.824;4.682;2023-07-22T10:20:22;14.77;;;5.20;;
37997;SDS011;24079;51.824;4.682;2023-07-22T10:22:48;15.82;;;5.25;;
37997;SDS011;24079;51.824;4.682;2023-07-22T10:25:16;14.40;;;5.32;;
37997;SDS011;24079;51.824;4.682;2023-07-22T10:27:43;14.02;;;4.63;;
37997;SDS011;24079;51.824;4.682;2023-07-22T10:30:10;11.30;;;4.80;;
37997;SDS011;24079;51.824;4.682;2023-07-22T10:32:40;13.13;;;4.82;;
37997;SDS011;24079;51.824;4.682;2023-07-22T10:38:12;12.80;;;5.10;;
37997;SDS011;24079;51.824;4.682;2023-07-22T10:40:49;16.30;;;4.97;;
37997;SDS011;24079;51.824;4.682;2023-07-22T10:43:17;13.07;;;5.18;;
37997;SDS011;24079;51.824;4.682;2023-07-22T10:46:05;15.25;;;5.20;;
37997;SDS011;24079;51.824;4.682;2023-07-22T10:48:36;14.15;;;5.32;;
37997;SDS011;24079;51.824;4.682;2023-07-22T10:51:07;14.85;;;5.65;;
37997;SDS011;24079;51.824;4.682;2023-07-22T10:53:46;18.98;;;5.32;;
37997;SDS011;24079;51.824;4.682;2023-07-22T10:56:18;14.73;;;4.75;;
37997;SDS011;24079;51.824;4.682;2023-07-22T11:14:25;12.48;;;3.63;;
37997;SDS011;24079;51.824;4.682;2023-07-22T11:16:52;10.63;;;3.90;;
37997;SDS011;24079;51.824;4.682;2023-07-22T11:19:20;16.30;;;3.63;;
37997;SDS011;24079;51.824;4.682;2023-07-22T11:21:49;8.00;;;3.58;;
37997;SDS011;24079;51.824;4.682;2023-07-22T11:24:15;11.90;;;3.85;;
37997;SDS011;24079;51.824;4.682;2023-07-22T11:26:42;11.63;;;3.58;;
37997;SDS011;24079;51.824;4.682;2023-07-22T11:29:09;11.82;;;4.47;;
37997;SDS011;24079;51.824;4.682;2023-07-22T11:31:35;12.32;;;4.78;;
37997;SDS011;24079;51.824;4.682;2023-07-22T11:34:03;13.40;;;4.45;;
37997;SDS011;24079;51.824;4.682;2023-07-22T11:36:29;14.00;;;4.53;;
37997;SDS011;24079;51.824;4.682;2023-07-22T11:39:05;11.05;;;4.13;;
37997;SDS011;24079;51.824;4.682;2023-07-22T11:41:33;14.55;;;4.43;;
37997;SDS011;24079;51.824;4.682;2023-07-22T11:44:01;12.50;;;4.40;;
37997;SDS011;24079;51.824;4.682;2023-07-22T11:46:28;10.85;;;4.22;;
37997;SDS011;24079;51.824;4.682;2023-07-22T11:48:54;10.80;;;4.45;;
37997;SDS011;24079;51.824;4.682;2023-07-22T11:51:21;11.45;;;4.70;;
37997;SDS011;24079;51.824;4.682;2023-07-22T11:53:52;9.27;;;4.07;;
37997;SDS011;24079;51.824;4.682;2023-07-22T11:56:20;13.52;;;4.35;;
37997;SDS011;24079;51.824;4.682;2023-07-22T11:58:56;16.27;;;4.65;;
37997;SDS011;24079;51.824;4.682;2023-07-22T12:01:22;11.43;;;4.28;;
37997;SDS011;24079;51.824;4.682;2023-07-22T12:03:49;10.90;;;4.80;;
37997;SDS011;24079;51.824;4.682;2023-07-22T12:06:20;8.88;;;3.63;;
37997;SDS011;24079;51.824;4.682;2023-07-22T12:08:51;11.75;;;3.20;;
37997;SDS011;24079;51.824;4.682;2023-07-22T12:11:17;11.68;;;3.33;;
37997;SDS011;24079;51.824;4.682;2023-07-22T12:13:47;8.25;;;3.00;;
37997;SDS011;24079;51.824;4.682;2023-07-22T12:16:35;5.43;;;2.30;;
37997;SDS011;24079;51.824;4.682;2023-07-22T12:19:02;7.18;;;2.50;;
37997;SDS011;24079;51.824;4.682;2023-07-22T12:21:29;5.72;;;2.45;;
37997;SDS011;24079;51.824;4.682;2023-07-22T12:23:55;5.95;;;2.70;;
37997;SDS011;24079;51.824;4.682;2023-07-22T12:26:20;7.03;;;2.17;;
37997;SDS011;24079;51.824;4.682;2023-07-22T12:28:46;7.90;;;2.65;;
37997;SDS011;24079;51.824;4.682;2023-07-22T12:31:12;6.55;;;2.35;;
37997;SDS011;24079;51.824;4.682;2023-07-22T12:33:37;6.80;;;2.40;;
37997;SDS011;24079;51.824;4.682;2023-07-22T12:36:03;4.30;;;2.28;;
37997;SDS011;24079;51.824;4.682;2023-07-22T12:38:30;6.35;;;2.08;;
37997;SDS011;24079;51.824;4.682;2023-07-22T12:40:56;6.35;;;2.72;;
37997;SDS011;24079;51.824;4.682;2023-07-22T12:43:22;5.72;;;2.10;;
37997;SDS011;24079;51.824;4.682;2023-07-22T12:45:48;6.40;;;2.40;;
37997;SDS011;24079;51.824;4.682;2023-07-22T12:48:15;5.32;;;2.10;;
37997;SDS011;24079;51.824;4.682;2023-07-22T12:50:45;4.50;;;2.17;;
37997;SDS011;24079;51.824;4.682;2023-07-22T12:53:13;16.80;;;2.90;;
37997;SDS011;24079;51.824;4.682;2023-07-22T12:55:39;6.90;;;2.30;;
37997;SDS011;24079;51.824;4.682;2023-07-22T12:58:05;4.43;;;1.70;;
37997;SDS011;24079;51.824;4.682;2023-07-22T13:00:31;10.68;;;2.13;;
37997;SDS011;24079;51.824;4.682;2023-07-22T13:02:57;8.55;;;2.30;;
37997;SDS011;24079;51.824;4.682;2023-07-22T13:05:23;5.03;;;1.88;;
37997;SDS011;24079;51.824;4.682;2023-07-22T13:07:50;4.80;;;2.10;;
37997;SDS011;24079;51.824;4.682;2023-07-22T13:10:16;3.35;;;1.77;;
37997;SDS011;24079;51.824;4.682;2023-07-22T13:12:45;9.50;;;2.85;;
37997;SDS011;24079;51.824;4.682;2023-07-22T13:15:11;5.75;;;2.42;;
37997;SDS011;24079;51.824;4.682;2023-07-22T13:17:38;6.93;;;2.30;;
37997;SDS011;24079;51.824;4.682;2023-07-22T13:20:07;11.00;;;2.45;;
37997;SDS011;24079;51.824;4.682;2023-07-22T13:22:40;5.63;;;2.25;;
37997;SDS011;24079;51.824;4.682;2023-07-22T13:25:06;6.88;;;2.20;;
37997;SDS011;24079;51.824;4.682;2023-07-22T13:27:34;5.60;;;2.50;;
37997;SDS011;24079;51.824;4.682;2023-07-22T13:30:01;6.43;;;2.60;;
37997;SDS011;24079;51.824;4.682;2023-07-22T13:32:27;7.63;;;2.17;;
37997;SDS011;24079;51.824;4.682;2023-07-22T13:34:53;6.88;;;2.50;;
37997;SDS011;24079;51.824;4.682;2023-07-22T13:37:19;7.55;;;2.25;;
37997;SDS011;24079;51.824;4.682;2023-07-22T13:39:45;8.48;;;2.70;;
37997;SDS011;24079;51.824;4.682;2023-07-22T13:42:11;6.95;;;2.58;;
37997;SDS011;24079;51.824;4.682;2023-07-22T13:44:37;4.72;;;2.40;;
37997;SDS011;24079;51.824;4.682;2023-07-22T13:47:03;9.00;;;2.22;;
37997;SDS011;24079;51.824;4.682;2023-07-22T13:49:30;5.97;;;2.90;;
37997;SDS011;24079;51.824;4.682;2023-07-22T13:51:55;5.00;;;2.40;;
37997;SDS011;24079;51.824;4.682;2023-07-22T13:54:21;5.38;;;2.65;;
37997;SDS011;24079;51.824;4.682;2023-07-22T13:56:46;7.53;;;2.58;;
37997;SDS011;24079;51.824;4.682;2023-07-22T13:59:13;6.07;;;2.65;;
37997;SDS011;24079;51.824;4.682;2023-07-22T14:01:39;8.82;;;2.95;;
37997;SDS011;24079;51.824;4.682;2023-07-22T14:04:06;10.10;;;2.70;;
37997;SDS011;24079;51.824;4.682;2023-07-22T14:06:32;6.20;;;2.75;;
37997;SDS011;24079;51.824;4.682;2023-07-22T14:08:58;7.68;;;2.38;;
37997;SDS011;24079;51.824;4.682;2023-07-22T14:11:24;9.98;;;2.95;;
37997;SDS011;24079;51.824;4.682;2023-07-22T14:13:51;6.43;;;2.90;;
37997;SDS011;24079;51.824;4.682;2023-07-22T14:16:18;10.88;;;3.65;;
37997;SDS011;24079;51.824;4.682;2023-07-22T14:18:44;8.85;;;3.63;;
37997;SDS011;24079;51.824;4.682;2023-07-22T14:21:11;11.05;;;3.50;;
37997;SDS011;24079;51.824;4.682;2023-07-22T14:23:37;9.68;;;3.47;;
37997;SDS011;24079;51.824;4.682;2023-07-22T14:26:03;4.93;;;3.42;;
37997;SDS011;24079;51.824;4.682;2023-07-22T14:28:29;11.18;;;3.90;;
37997;SDS011;24079;51.824;4.682;2023-07-22T14:30:56;12.00;;;3.90;;
37997;SDS011;24079;51.824;4.682;2023-07-22T14:33:22;8.02;;;3.70;;
37997;SDS011;24079;51.824;4.682;2023-07-22T14:35:49;10.25;;;3.45;;
37997;SDS011;24079;51.824;4.682;2023-07-22T14:38:15;9.52;;;3.35;;
37997;SDS011;24079;51.824;4.682;2023-07-22T14:40:41;8.45;;;3.38;;
37997;SDS011;24079;51.824;4.682;2023-07-22T14:43:07;7.60;;;3.55;;
37997;SDS011;24079;51.824;4.682;2023-07-22T14:45:33;7.80;;;3.42;;
37997;SDS011;24079;51.824;4.682;2023-07-22T14:47:59;6.53;;;3.30;;
37997;SDS011;24079;51.824;4.682;2023-07-22T14:50:25;8.52;;;3.72;;
37997;SDS011;24079;51.824;4.682;2023-07-22T14:52:51;7.60;;;3.40;;
37997;SDS011;24079;51.824;4.682;2023-07-22T14:55:16;6.70;;;3.05;;
37997;SDS011;24079;51.824;4.682;2023-07-22T14:57:43;5.75;;;2.80;;
37997;SDS011;24079;51.824;4.682;2023-07-22T15:00:11;12.32;;;3.30;;
37997;SDS011;24079;51.824;4.682;2023-07-22T15:02:41;7.68;;;3.13;;
37997;SDS011;24079;51.824;4.682;2023-07-22T15:05:07;9.00;;;3.45;;
37997;SDS011;24079;51.824;4.682;2023-07-22T15:07:34;11.23;;;3.00;;
37997;SDS011;24079;51.824;4.682;2023-07-22T15:10:00;10.75;;;3.05;;
37997;SDS011;24079;51.824;4.682;2023-07-22T15:12:27;9.52;;;3.00;;
37997;SDS011;24079;51.824;4.682;2023-07-22T15:14:53;8.55;;;3.10;;
37997;SDS011;24079;51.824;4.682;2023-07-22T15:17:19;9.05;;;3.40;;
37997;SDS011;24079;51.824;4.682;2023-07-22T15:19:45;7.68;;;3.40;;
37997;SDS011;24079;51.824;4.682;2023-07-22T15:22:11;10.30;;;3.33;;
37997;SDS011;24079;51.824;4.682;2023-07-22T15:24:36;6.70;;;3.15;;
37997;SDS011;24079;51.824;4.682;2023-07-22T15:27:02;7.47;;;3.15;;
37997;SDS011;24079;51.824;4.682;2023-07-22T15:29:28;7.53;;;3.35;;
37997;SDS011;24079;51.824;4.682;2023-07-22T15:31:54;11.40;;;3.30;;
37997;SDS011;24079;51.824;4.682;2023-07-22T15:34:20;7.20;;;3.67;;
37997;SDS011;24079;51.824;4.682;2023-07-22T15:36:46;7.38;;;3.30;;
37997;SDS011;24079;51.824;4.682;2023-07-22T15:39:12;6.85;;;3.60;;
37997;SDS011;24079;51.824;4.682;2023-07-22T15:41:38;12.60;;;3.20;;
37997;SDS011;24079;51.824;4.682;2023-07-22T15:44:04;9.38;;;3.60;;
37997;SDS011;24079;51.824;4.682;2023-07-22T15:46:31;8.93;;;3.42;;
37997;SDS011;24079;51.824;4.682;2023-07-22T15:48:57;9.32;;;3.38;;
37997;SDS011;24079;51.824;4.682;2023-07-22T15:51:23;10.13;;;3.28;;
37997;SDS011;24079;51.824;4.682;2023-07-22T15:53:50;10.27;;;2.92;;
37997;SDS011;24079;51.824;4.682;2023-07-22T15:56:16;8.75;;;3.42;;
37997;SDS011;24079;51.824;4.682;2023-07-22T15:58:42;12.05;;;3.92;;
37997;SDS011;24079;51.824;4.682;2023-07-22T16:01:08;9.05;;;3.17;;
37997;SDS011;24079;51.824;4.682;2023-07-22T16:03:34;9.05;;;2.97;;
37997;SDS011;24079;51.824;4.682;2023-07-22T16:06:02;9.57;;;3.33;;
37997;SDS011;24079;51.824;4.682;2023-07-22T16:08:28;10.85;;;3.20;;
37997;SDS011;24079;51.824;4.682;2023-07-22T16:10:57;9.52;;;3.25;;
37997;SDS011;24079;51.824;4.682;2023-07-22T16:13:24;10.45;;;3.05;;
37997;SDS011;24079;51.824;4.682;2023-07-22T16:15:50;9.57;;;2.88;;
37997;SDS011;24079;51.824;4.682;2023-07-22T16:18:16;11.43;;;2.83;;
37997;SDS011;24079;51.824;4.682;2023-07-22T16:20:42;11.10;;;3.40;;
37997;SDS011;24079;51.824;4.682;2023-07-22T16:23:07;10.48;;;3.40;;
37997;SDS011;24079;51.824;4.682;2023-07-22T16:25:33;15.93;;;3.60;;
37997;SDS011;24079;51.824;4.682;2023-07-22T16:27:59;9.43;;;3.13;;
37997;SDS011;24079;51.824;4.682;2023-07-22T16:30:24;14.45;;;2.75;;
37997;SDS011;24079;51.824;4.682;2023-07-22T16:32:51;10.40;;;2.92;;
37997;SDS011;24079;51.824;4.682;2023-07-22T16:35:18;9.80;;;3.50;;
37997;SDS011;24079;51.824;4.682;2023-07-22T16:37:44;8.10;;;3.13;;
37997;SDS011;24079;51.824;4.682;2023-07-22T16:40:10;11.07;;;3.20;;
37997;SDS011;24079;51.824;4.682;2023-07-22T16:42:37;12.05;;;3.58;;
37997;SDS011;24079;51.824;4.682;2023-07-22T16:45:04;9.55;;;3.58;;
37997;SDS011;24079;51.824;4.682;2023-07-22T16:47:30;11.98;;;3.42;;
37997;SDS011;24079;51.824;4.682;2023-07-22T16:49:56;10.50;;;3.25;;
37997;SDS011;24079;51.824;4.682;2023-07-22T16:52:21;13.30;;;3.13;;
37997;SDS011;24079;51.824;4.682;2023-07-22T16:54:47;12.18;;;3.22;;
37997;SDS011;24079;51.824;4.682;2023-07-22T16:57:13;12.73;;;3.25;;
37997;SDS011;24079;51.824;4.682;2023-07-22T16:59:39;10.38;;;3.72;;
37997;SDS011;24079;51.824;4.682;2023-07-22T17:02:05;10.55;;;3.00;;
37997;SDS011;24079;51.824;4.682;2023-07-22T17:04:30;12.93;;;3.97;;
37997;SDS011;24079;51.824;4.682;2023-07-22T17:06:56;9.75;;;4.00;;
37997;SDS011;24079;51.824;4.682;2023-07-22T17:09:22;13.15;;;3.65;;
37997;SDS011;24079;51.824;4.682;2023-07-22T17:11:48;10.43;;;3.60;;
37997;SDS011;24079;51.824;4.682;2023-07-22T17:14:14;11.90;;;3.67;;
37997;SDS011;24079;51.824;4.682;2023-07-22T17:16:39;10.43;;;3.67;;
37997;SDS011;24079;51.824;4.682;2023-07-22T17:19:05;13.35;;;4.03;;
37997;SDS011;24079;51.824;4.682;2023-07-22T17:21:30;12.60;;;3.92;;
37997;SDS011;24079;51.824;4.682;2023-07-22T17:23:56;13.05;;;3.78;;
37997;SDS011;24079;51.824;4.682;2023-07-22T17:26:22;16.02;;;4.65;;
37997;SDS011;24079;51.824;4.682;2023-07-22T17:28:49;12.30;;;4.43;;
37997;SDS011;24079;51.824;4.682;2023-07-22T17:31:15;16.10;;;4.78;;
37997;SDS011;24079;51.824;4.682;2023-07-22T17:33:41;16.13;;;4.43;;
37997;SDS011;24079;51.824;4.682;2023-07-22T17:36:07;16.85;;;4.47;;
37997;SDS011;24079;51.824;4.682;2023-07-22T17:38:34;11.13;;;3.65;;
37997;SDS011;24079;51.824;4.682;2023-07-22T17:41:00;14.50;;;4.30;;
37997;SDS011;24079;51.824;4.682;2023-07-22T17:43:26;15.77;;;4.45;;
37997;SDS011;24079;51.824;4.682;2023-07-22T17:45:52;15.40;;;4.45;;
37997;SDS011;24079;51.824;4.682;2023-07-22T17:48:18;14.02;;;4.82;;
37997;SDS011;24079;51.824;4.682;2023-07-22T17:50:49;14.02;;;4.20;;
37997;SDS011;24079;51.824;4.682;2023-07-22T17:53:15;14.65;;;4.63;;
37997;SDS011;24079;51.824;4.682;2023-07-22T17:55:41;18.73;;;5.22;;
37997;SDS011;24079;51.824;4.682;2023-07-22T17:58:07;11.77;;;4.00;;
37997;SDS011;24079;51.824;4.682;2023-07-22T18:00:33;15.25;;;4.40;;
37997;SDS011;24079;51.824;4.682;2023-07-22T18:02:59;14.65;;;4.32;;
37997;SDS011;24079;51.824;4.682;2023-07-22T18:05:24;10.07;;;3.42;;
37997;SDS011;24079;51.824;4.682;2023-07-22T18:07:52;10.90;;;3.70;;
37997;SDS011;24079;51.824;4.682;2023-07-22T18:10:19;12.18;;;4.18;;
37997;SDS011;24079;51.824;4.682;2023-07-22T18:12:45;10.13;;;3.78;;
37997;SDS011;24079;51.824;4.682;2023-07-22T18:15:11;9.13;;;3.50;;
37997;SDS011;24079;51.824;4.682;2023-07-22T18:17:38;15.32;;;3.83;;
37997;SDS011;24079;51.824;4.682;2023-07-22T18:20:04;10.73;;;3.78;;
37997;SDS011;24079;51.824;4.682;2023-07-22T18:22:31;9.63;;;3.92;;
37997;SDS011;24079;51.824;4.682;2023-07-22T18:25:00;9.93;;;3.97;;
37997;SDS011;24079;51.824;4.682;2023-07-22T18:27:26;10.00;;;4.03;;
37997;SDS011;24079;51.824;4.682;2023-07-22T18:29:52;10.93;;;4.40;;
37997;SDS011;24079;51.824;4.682;2023-07-22T18:32:24;12.97;;;4.73;;
37997;SDS011;24079;51.824;4.682;2023-07-22T18:34:54;12.57;;;4.60;;
37997;SDS011;24079;51.824;4.682;2023-07-22T18:37:27;12.00;;;4.43;;
37997;SDS011;24079;51.824;4.682;2023-07-22T18:39:54;10.13;;;4.13;;
37997;SDS011;24079;51.824;4.682;2023-07-22T18:42:20;15.02;;;4.93;;
37997;SDS011;24079;51.824;4.682;2023-07-22T18:44:46;12.10;;;4.25;;
37997;SDS011;24079;51.824;4.682;2023-07-22T18:47:12;11.13;;;4.50;;
37997;SDS011;24079;51.824;4.682;2023-07-22T18:49:38;11.10;;;4.65;;
37997;SDS011;24079;51.824;4.682;2023-07-22T18:52:04;9.50;;;3.75;;
37997;SDS011;24079;51.824;4.682;2023-07-22T18:54:30;9.50;;;3.67;;
37997;SDS011;24079;51.824;4.682;2023-07-22T18:56:55;11.35;;;4.75;;
37997;SDS011;24079;51.824;4.682;2023-07-22T18:59:21;9.85;;;3.78;;
37997;SDS011;24079;51.824;4.682;2023-07-22T19:01:47;12.55;;;4.72;;
37997;SDS011;24079;51.824;4.682;2023-07-22T19:04:12;10.38;;;4.32;;
37997;SDS011;24079;51.824;4.682;2023-07-22T19:06:38;11.25;;;4.35;;
37997;SDS011;24079;51.824;4.682;2023-07-22T19:09:04;10.35;;;4.78;;
37997;SDS011;24079;51.824;4.682;2023-07-22T19:11:30;11.00;;;4.65;;
37997;SDS011;24079;51.824;4.682;2023-07-22T19:13:56;9.27;;;4.38;;
37997;SDS011;24079;51.824;4.682;2023-07-22T19:16:24;10.90;;;4.65;;
37997;SDS011;24079;51.824;4.682;2023-07-22T19:18:50;10.85;;;4.28;;
37997;SDS011;24079;51.824;4.682;2023-07-22T19:21:15;9.57;;;4.40;;
37997;SDS011;24079;51.824;4.682;2023-07-22T19:23:41;10.07;;;4.55;;
37997;SDS011;24079;51.824;4.682;2023-07-22T19:26:07;11.45;;;4.47;;
37997;SDS011;24079;51.824;4.682;2023-07-22T19:28:33;10.40;;;5.00;;
37997;SDS011;24079;51.824;4.682;2023-07-22T19:30:58;8.98;;;4.72;;
37997;SDS011;24079;51.824;4.682;2023-07-22T19:33:24;9.50;;;4.57;;
37997;SDS011;24079;51.824;4.682;2023-07-22T19:36:07;8.93;;;4.60;;
37997;SDS011;24079;51.824;4.682;2023-07-22T19:38:34;11.27;;;4.72;;
37997;SDS011;24079;51.824;4.682;2023-07-22T19:41:04;9.63;;;4.82;;
37997;SDS011;24079;51.824;4.682;2023-07-22T19:43:39;10.25;;;4.70;;
37997;SDS011;24079;51.824;4.682;2023-07-22T19:46:07;12.40;;;5.32;;
37997;SDS011;24079;51.824;4.682;2023-07-22T19:48:34;13.25;;;5.15;;
37997;SDS011;24079;51.824;4.682;2023-07-22T19:51:00;7.82;;;4.50;;
37997;SDS011;24079;51.824;4.682;2023-07-22T19:53:27;13.25;;;5.07;;
37997;SDS011;24079;51.824;4.682;2023-07-22T19:55:53;10.10;;;4.88;;
37997;SDS011;24079;51.824;4.682;2023-07-22T19:58:20;8.30;;;4.93;;
37997;SDS011;24079;51.824;4.682;2023-07-22T20:00:55;12.98;;;5.30;;
37997;SDS011;24079;51.824;4.682;2023-07-22T20:03:25;10.43;;;5.28;;
37997;SDS011;24079;51.824;4.682;2023-07-22T20:05:52;13.15;;;5.07;;
37997;SDS011;24079;51.824;4.682;2023-07-22T20:08:18;14.35;;;5.75;;
37997;SDS011;24079;51.824;4.682;2023-07-22T20:10:46;15.32;;;6.30;;
37997;SDS011;24079;51.824;4.682;2023-07-22T20:13:12;14.85;;;6.20;;
37997;SDS011;24079;51.824;4.682;2023-07-22T20:15:38;13.63;;;5.85;;
37997;SDS011;24079;51.824;4.682;2023-07-22T20:18:04;10.57;;;5.47;;
37997;SDS011;24079;51.824;4.682;2023-07-22T20:20:29;10.52;;;5.88;;
37997;SDS011;24079;51.824;4.682;2023-07-22T20:22:55;13.15;;;5.72;;
37997;SDS011;24079;51.824;4.682;2023-07-22T20:25:21;18.77;;;6.45;;
37997;SDS011;24079;51.824;4.682;2023-07-22T20:27:51;14.02;;;6.30;;
37997;SDS011;24079;51.824;4.682;2023-07-22T20:30:17;12.90;;;6.40;;
37997;SDS011;24079;51.824;4.682;2023-07-22T20:32:44;13.80;;;6.20;;
37997;SDS011;24079;51.824;4.682;2023-07-22T20:35:09;12.57;;;6.22;;
37997;SDS011;24079;51.824;4.682;2023-07-22T20:37:37;14.40;;;6.55;;
37997;SDS011;24079;51.824;4.682;2023-07-22T20:40:06;13.27;;;6.50;;
37997;SDS011;24079;51.824;4.682;2023-07-22T20:42:33;11.85;;;6.68;;
37997;SDS011;24079;51.824;4.682;2023-07-22T20:44:58;14.48;;;7.10;;
37997;SDS011;24079;51.824;4.682;2023-07-22T20:47:24;12.13;;;6.70;;
37997;SDS011;24079;51.824;4.682;2023-07-22T20:49:51;15.82;;;7.32;;
37997;SDS011;24079;51.824;4.682;2023-07-22T20:52:17;14.82;;;6.65;;